Paranagua Express — A8HQ7 — position and weather

sailwx.info

Track history (hours):
 
Tides and Currents Weather Stations Pressure Air Temp Water Temp Dewpoint Dewpoint Depression Visibility Wind Speed Wind Dir Waves Ship Positions

Paranagua Express

Last reported at 2018-May-13 04:57 UTC. Time now 2018-May-22 17:57 UTC.
Position N 05°16' E 000°39'.
Warning: this ship's position is 9 days out of date.

Length 207 m; draft 10.7 m.

Type: Ship (hazmat cat A). MMSI: 636018531.

Date/timePositionNaut miles runAvg speedWind from/ knotsBaromVisibWave heightAir tempDewpointWater temp
2018-May-13 04:57N 05°16' E 000°39'914.2
2018-May-13 04:21N 05°13' E 000°31'1313.6
2018-May-13 03:22N 05°09' E 000°18'513.7
2018-May-13 02:59N 05°07' E 000°13'  
2018-May-10 14:34N 08°04' W 014°30'216.1
2018-May-10 14:26N 08°05' W 014°32'716.1
2018-May-10 13:59N 08°10' W 014°37'1318.4
2018-May-10 13:17N 08°18' W 014°47'618.6
2018-May-10 13:00N 08°22' W 014°52'4916.7
2018-May-10 10:02N 08°55' W 015°28'716.4
2018-May-10 09:38N 08°60' W 015°33'216.4
2018-May-10 09:30N 09°01' W 015°35'816.5
2018-May-10 09:00N 09°07' W 015°41'1418.8
2018-May-10 08:15N 09°18' W 015°50'719.0
2018-May-10 07:55N 09°23' W 015°54'819.0
2018-May-10 07:30N 09°28' W 015°60'917.4
2018-May-10 06:58N 09°35' W 016°06'817.1
2018-May-10 06:30N 09°41' W 016°11'917.2
2018-May-10 06:00N 09°48' W 016°17'916.9
2018-May-10 05:29N 09°54' W 016°23'1016.6
2018-May-10 04:52N 10°02' W 016°30'616.7
2018-May-10 04:29N 10°07' W 016°34'916.7
2018-May-10 03:59N 10°13' W 016°40'1316.7
2018-May-10 03:11N 10°23' W 016°48'1216.6
2018-May-10 02:28N 10°33' W 016°55'816.7
2018-May-10 02:00N 10°40' W 016°59'5816.7
2018-May-09 22:32N 11°34' W 017°20'116.9
2018-May-09 22:30N 11°35' W 017°20'916.8
2018-May-09 21:59N 11°43' W 017°24'  
2018-May-05 18:14N 35°57' W 005°37'314.4
2018-May-05 18:00N 35°58' W 005°33'815.3
2018-May-05 17:30N 36°01' W 005°24'713.1
2018-May-05 17:00N 36°07' W 005°24'2 2.0
2018-May-05 15:55N 36°09' W 005°26'0 0.0
2018-May-05 15:07N 36°09' W 005°26'0 0.0
2018-May-05 14:55N 36°09' W 005°26'0 0.0
2018-May-05 14:04N 36°09' W 005°26'0 0.0
2018-May-05 13:39N 36°09' W 005°26'0 0.0
2018-May-05 11:21N 36°09' W 005°26'0 0.0
2018-May-05 08:29N 36°09' W 005°26'0 0.0
2018-May-05 05:46N 36°09' W 005°26'0 0.0
2018-May-05 05:24N 36°09' W 005°26'0 0.0
2018-May-05 04:44N 36°09' W 005°26'0 0.0
2018-May-05 04:14N 36°09' W 005°26'0 0.0
2018-May-05 03:57N 36°09' W 005°26'0 0.0
2018-May-05 02:54N 36°09' W 005°26'0 0.0
2018-May-05 02:27N 36°09' W 005°26'0 0.0
2018-May-05 01:59N 36°09' W 005°26'0 0.0
2018-May-05 01:29N 36°09' W 005°26'0 0.0
2018-May-05 00:59N 36°09' W 005°26'0 0.0
2018-May-05 00:30N 36°09' W 005°26'0 0.0
2018-May-04 23:55N 36°09' W 005°26'1 1.3
2018-May-04 23:30N 36°09' W 005°26'3 5.9
2018-May-04 23:00N 36°07' W 005°23'3 6.5
2018-May-04 22:30N 36°04' W 005°21'510.1
2018-May-04 22:00N 36°02' W 005°15'711.3
2018-May-04 21:23N 35°58' W 005°08'  
Track history (hours):
 
Tides and Currents Weather Stations Pressure Air Temp Water Temp Dewpoint Dewpoint Depression Visibility Wind Speed Wind Dir Waves Ship Positions

Paranagua Express

Last reported at 2018-May-13 04:57 UTC. Time now 2018-May-22 17:57 UTC.
Position N 05°16' E 000°39'.
Warning: this ship's position is 9 days out of date.

Length 207 m; draft 10.7 m.

Type: Ship (hazmat cat A). MMSI: 636018531.

Date/timePositionNaut miles runAvg speedWind from/ knotsBaromVisibWave heightAir tempDewpointWater temp
2018-May-13 04:57N 05°16' E 000°39'914.2
2018-May-13 04:21N 05°13' E 000°31'1313.6
2018-May-13 03:22N 05°09' E 000°18'513.7
2018-May-13 02:59N 05°07' E 000°13'  
2018-May-10 14:34N 08°04' W 014°30'216.1
2018-May-10 14:26N 08°05' W 014°32'716.1
2018-May-10 13:59N 08°10' W 014°37'1318.4
2018-May-10 13:17N 08°18' W 014°47'618.6
2018-May-10 13:00N 08°22' W 014°52'4916.7
2018-May-10 10:02N 08°55' W 015°28'716.4
2018-May-10 09:38N 08°60' W 015°33'216.4
2018-May-10 09:30N 09°01' W 015°35'816.5
2018-May-10 09:00N 09°07' W 015°41'1418.8
2018-May-10 08:15N 09°18' W 015°50'719.0
2018-May-10 07:55N 09°23' W 015°54'819.0
2018-May-10 07:30N 09°28' W 015°60'917.4
2018-May-10 06:58N 09°35' W 016°06'817.1
2018-May-10 06:30N 09°41' W 016°11'917.2
2018-May-10 06:00N 09°48' W 016°17'916.9
2018-May-10 05:29N 09°54' W 016°23'1016.6
2018-May-10 04:52N 10°02' W 016°30'616.7
2018-May-10 04:29N 10°07' W 016°34'916.7
2018-May-10 03:59N 10°13' W 016°40'1316.7
2018-May-10 03:11N 10°23' W 016°48'1216.6
2018-May-10 02:28N 10°33' W 016°55'816.7
2018-May-10 02:00N 10°40' W 016°59'5816.7
2018-May-09 22:32N 11°34' W 017°20'116.9
2018-May-09 22:30N 11°35' W 017°20'916.8
2018-May-09 21:59N 11°43' W 017°24'  
2018-May-05 18:14N 35°57' W 005°37'314.4
2018-May-05 18:00N 35°58' W 005°33'815.3
2018-May-05 17:30N 36°01' W 005°24'713.1
2018-May-05 17:00N 36°07' W 005°24'2 2.0
2018-May-05 15:55N 36°09' W 005°26'0 0.0
2018-May-05 15:07N 36°09' W 005°26'0 0.0
2018-May-05 14:55N 36°09' W 005°26'0 0.0
2018-May-05 14:04N 36°09' W 005°26'0 0.0
2018-May-05 13:39N 36°09' W 005°26'0 0.0
2018-May-05 11:21N 36°09' W 005°26'0 0.0
2018-May-05 08:29N 36°09' W 005°26'0 0.0
2018-May-05 05:46N 36°09' W 005°26'0 0.0
2018-May-05 05:24N 36°09' W 005°26'0 0.0
2018-May-05 04:44N 36°09' W 005°26'0 0.0
2018-May-05 04:14N 36°09' W 005°26'0 0.0
2018-May-05 03:57N 36°09' W 005°26'0 0.0
2018-May-05 02:54N 36°09' W 005°26'0 0.0
2018-May-05 02:27N 36°09' W 005°26'0 0.0
2018-May-05 01:59N 36°09' W 005°26'0 0.0
2018-May-05 01:29N 36°09' W 005°26'0 0.0
2018-May-05 00:59N 36°09' W 005°26'0 0.0
2018-May-05 00:30N 36°09' W 005°26'0 0.0
2018-May-04 23:55N 36°09' W 005°26'1 1.3
2018-May-04 23:30N 36°09' W 005°26'3 5.9
2018-May-04 23:00N 36°07' W 005°23'3 6.5
2018-May-04 22:30N 36°04' W 005°21'510.1
2018-May-04 22:00N 36°02' W 005°15'711.3
2018-May-04 21:23N 35°58' W 005°08'  

Dump ship's entire track history